Aérodrome :
LOGIN :

S'inscrire | Disclaimer

   EN    FR    IT 

 










Légende :    VFR   VFR Marginal   IFR   IFR Intensif   IFR Très Intensif
Visi : 
Plafond : 
>= 8 km
>= 3000ft
5 à 8 km
1000 à 3000 ft
1500m à 5 km
500 à 1000 ft
800 à 1500m
200 à 500 ft
< 800m
< 200 ft
Symboles :   Orages  Brouillard  Fortes neiges  Fortes précipitations  Vent > 20 kt
SIGMETs :   Divers  Orages  Givrage  Turbulence  Onde Orograph.  Cendres Volcan.







- Altitude de l'aérodrome : 284 ft


EGUW - RAF Wattisham

DERNIER METAR :
  • 131750Z 29015KT CAVOK 04/02 Q0988 BLU NOSIG

METARs EXPIRÉS :
  • 131650Z 30014KT 9999 FEW010 BKN028 BKN120 06/03 Q0988 BLU NOSIG
  • 131609Z 25018KT 5000 RA FEW007 SCT011 BKN023 07/06 Q0988 GRN BECMG 9999 NSW FEW007 BLU
  • 131550Z 22013KT 9000 -RA SCT008 BKN020 07/06 Q0988 GRN TEMPO 5000 RA GRN

TAF TAF EGUW
Valide du 13 à 18h jusqu'au 14 à 00h UTC


131627Z 1318/1324 28012KT 9999 SCT040
TEMPO 1318/1324 28015G25KT
TEMPO 1320/1323 2000 SHRASN BKN005
PROB40
TEMPO 1320/1323 28020G35KT 0800 +SHSN BKN002 BKN020CB
Pas de NOTAMs connus pour ce terrain.
4 SIGMETs publiés pour la FIR London (EGTT) :
 
Turbulence forte
EGTT SIGMET 05 VALID 131900/132300 EGRR
EGTT LONDON FIR SEV TURB FCST WI N4850 W00800 - N5100 W00800 - N5220 W00530 - N5314 W00530 - N5251 W00334 - N4948 W00304 - N4926 W00456 - N4856 W00731 - N4855 W00733 - N4850 W00800 SFC/FL060 MOV ESE 40KT NC=
Turbulence forte
EGTT SIGMET 04 VALID 131800/132200 EGRR
EGTT LONDON FIR SEV TURB OBS WI N5000 W00022 - N5000 W00200 - N4933 W00418 - N5059 W00800 - N5121 W00721 - N5155 W00616 - N5004 W00006 - N5000 W00014 - N5000 W00022 FL140/240 MOV S 10KT NC=
Orages noyés dans la masse
EGTT SIGMET 03 VALID 131730/132130 EGRR
EGTT LONDON FIR EMBD TS OBS E OF LINE N5500 E00301 - N5026 E00052 TOP FL300 MOV E 35KT NC=
Turbulence forte
EGTT SIGMET 02 VALID 131500/131900 EGRR
EGTT LONDON FIR SEV TURB FCST W OF LINE N5204 W00600 - N4903 W00654 SFC/FL060 MOV E 50KT NC=



MET'MAP, la Météo Aéronautique d'un coup d'oeil ! - Copyright ORBIFLY Décembre 2007 - Disclaimer

ORBIFLY MET'MAP TEAM :

Programmation & Développement : Alexandra Zaïnal
Conception & Développement : Baudouin d'Aumeries
Co-Programmation & Développement : Marc-Olivier Méhu
Soutien technique & logistique : Manuel Goepfert

Contact : metmap@orbifly.com




SOURCES & CREDITS :

   NOAA